createdAt,value
2023-05-10T00:02:08.835Z,66.45
2023-05-10T00:04:43.652Z,67.33
2023-05-10T04:32:55.800Z,73.38
2023-05-10T04:35:30.930Z,73.38
2023-05-10T04:38:05.229Z,91.15
2023-05-10T04:40:39.919Z,76.08
2023-05-10T04:43:14.182Z,72.13
2023-05-10T04:45:48.928Z,72.50
2023-05-10T04:48:24.651Z,73.15
2023-05-10T04:50:59.323Z,73.08
2023-05-10T04:53:33.631Z,72.98
2023-05-10T04:56:09.136Z,72.86
2023-05-10T04:58:43.469Z,73.20
2023-05-10T05:01:18.551Z,73.00
2023-05-10T05:03:54.851Z,73.95
2023-05-10T05:06:29.670Z,73.93
2023-05-10T05:09:04.032Z,74.00
2023-05-10T05:11:38.707Z,73.67
2023-05-10T05:14:13.071Z,73.60
2023-05-10T05:16:47.781Z,73.35
2023-05-10T05:19:23.720Z,72.60
2023-05-10T05:21:58.356Z,73.06
2023-05-10T05:24:39.246Z,72.94
2023-05-10T05:27:14.119Z,73.04
2023-05-10T05:29:48.496Z,72.58
2023-05-10T05:32:23.283Z,72.34
2023-05-10T05:34:58.979Z,85.58
2023-05-10T05:37:33.575Z,80.82
2023-05-10T05:40:09.003Z,69.41
2023-05-10T05:42:43.759Z,70.08
2023-05-10T05:45:18.364Z,70.83
2023-05-10T05:47:53.301Z,70.85
2023-05-10T05:50:29.075Z,70.75
2023-05-10T05:53:03.698Z,70.62
2023-05-10T05:55:38.105Z,70.20
2023-05-10T05:58:13.130Z,70.29
2023-05-10T06:03:31.608Z,68.00
2023-05-10T06:06:07.081Z,68.00
2023-05-10T06:08:41.411Z,69.26
2023-05-10T06:11:16.143Z,68.96
2023-05-10T06:13:50.589Z,68.38
2023-05-10T06:16:25.205Z,68.37
2023-05-10T06:19:00.983Z,68.33
2023-05-10T06:21:35.723Z,67.44
2023-05-10T06:24:10.310Z,72.22
2023-05-10T06:26:44.854Z,66.01
2023-05-10T06:29:19.316Z,66.28
2023-05-10T06:31:54.035Z,66.07
2023-05-10T06:34:29.717Z,66.26
2023-05-10T06:37:04.711Z,66.13
2023-05-10T06:39:39.069Z,66.28
2023-05-10T06:42:13.774Z,65.37
2023-05-10T06:44:53.917Z,65.59
2023-05-10T06:47:28.964Z,65.18
2023-05-10T06:50:05.103Z,65.27
2023-05-10T06:52:59.666Z,64.92
2023-05-10T06:55:54.007Z,64.63
2023-05-10T06:58:28.977Z,62.09
2023-05-10T07:01:06.636Z,62.53
2023-05-10T07:03:41.617Z,63.18
2023-05-10T07:06:29.361Z,63.05
2023-05-10T07:09:08.780Z,62.14
2023-05-10T07:11:43.108Z,65.76
2023-05-10T07:14:18.524Z,67.32
2023-05-10T07:16:52.962Z,61.52
2023-05-10T07:19:27.585Z,61.70
2023-05-10T07:22:03.308Z,61.02
2023-05-10T07:24:38.197Z,61.32
2023-05-10T07:27:12.557Z,60.50
2023-05-10T07:29:47.205Z,60.64
2023-05-10T07:32:21.562Z,60.68
2023-05-10T07:34:56.540Z,61.44
2023-05-10T07:37:32.257Z,61.87
2023-05-10T07:40:08.173Z,61.21
2023-05-10T07:42:42.521Z,62.02
2023-05-10T07:45:17.581Z,61.39
2023-05-10T07:47:52.269Z,62.32
2023-05-10T07:50:27.128Z,61.90
2023-05-10T07:53:03.266Z,60.72
2023-05-10T07:55:37.914Z,63.54
2023-05-10T07:58:12.399Z,58.46
2023-05-10T08:00:47.039Z,56.79
2023-05-10T08:03:21.658Z,56.75
2023-05-10T08:05:56.206Z,57.46
2023-05-10T08:08:32.268Z,55.97
2023-05-10T08:11:06.645Z,56.71
2023-05-10T08:13:41.303Z,57.44
2023-05-10T08:16:15.764Z,55.06
2023-05-10T08:18:51.975Z,55.24
2023-05-10T08:21:27.186Z,56.15
2023-05-10T08:24:03.198Z,54.98
2023-05-10T08:26:37.524Z,53.61
2023-05-10T08:29:12.161Z,54.32
2023-05-10T08:31:46.448Z,53.54
2023-05-10T08:34:21.273Z,53.13
2023-05-10T08:36:55.964Z,52.79
2023-05-10T08:39:32.501Z,51.13
2023-05-10T08:42:07.879Z,51.34
2023-05-10T08:44:43.132Z,51.32
2023-05-10T08:47:20.446Z,51.06
2023-05-10T08:49:57.303Z,51.25
2023-05-10T08:52:33.053Z,51.76
2023-05-10T08:55:09.689Z,51.38
2023-05-10T08:57:44.193Z,51.36
2023-05-10T09:00:20.277Z,52.05
2023-05-10T09:02:56.014Z,51.67
2023-05-10T14:03:16.054Z,37.88
2023-05-10T14:05:50.983Z,37.88
2023-05-10T14:08:25.239Z,39.41
2023-05-10T14:10:59.856Z,39.29
2023-05-10T14:13:34.181Z,38.92
2023-05-10T14:16:09.259Z,38.13
2023-05-10T14:18:44.918Z,40.07
2023-05-10T14:21:19.570Z,38.50
2023-05-10T14:23:53.769Z,38.83
2023-05-10T14:26:28.556Z,39.69
2023-05-10T14:29:03.374Z,39.13
2023-05-10T14:31:38.039Z,39.83
2023-05-10T14:34:13.734Z,39.51
2023-05-10T14:36:48.298Z,39.98
2023-05-10T14:39:22.655Z,40.58
2023-05-10T14:41:57.186Z,40.08
2023-05-10T14:44:31.654Z,38.39
2023-05-10T14:47:06.263Z,38.54
2023-05-10T14:49:42.105Z,39.06
2023-05-10T14:52:16.773Z,39.21
2023-05-10T14:54:51.012Z,38.17
2023-05-10T14:57:25.742Z,37.54
2023-05-10T15:00:00.251Z,37.90
2023-05-10T15:02:35.680Z,37.97
2023-05-10T15:05:11.722Z,37.48
2023-05-10T15:07:46.692Z,37.72
2023-05-10T15:10:21.033Z,37.22
2023-05-10T15:12:55.532Z,38.16
2023-05-10T15:15:29.838Z,38.20
2023-05-10T15:18:04.452Z,38.64
2023-05-10T15:20:40.112Z,38.29
2023-05-10T15:23:14.728Z,38.90
2023-05-10T15:25:50.750Z,38.25
2023-05-10T15:28:25.293Z,39.35
2023-05-10T15:30:59.541Z,39.36
2023-05-10T15:33:34.084Z,39.99
2023-05-10T15:36:09.778Z,41.68
2023-05-10T15:38:44.218Z,41.44
2023-05-10T15:41:18.352Z,40.53
2023-05-10T15:43:52.796Z,40.48
2023-05-10T15:46:27.174Z,39.63
2023-05-10T15:49:02.001Z,39.07
2023-05-10T15:51:37.663Z,38.68
2023-05-10T15:54:12.275Z,38.26
2023-05-10T15:56:46.632Z,38.63
2023-05-10T15:59:21.396Z,37.03
2023-05-10T16:01:55.961Z,36.61
2023-05-10T16:04:30.885Z,36.70
2023-05-10T16:07:06.619Z,37.44
2023-05-10T16:09:41.439Z,37.50
2023-05-10T16:12:15.790Z,37.65
2023-05-10T16:14:50.413Z,37.98
2023-05-10T16:17:24.945Z,37.88
2023-05-10T16:19:59.661Z,36.88
2023-05-10T16:22:35.445Z,37.62
2023-05-10T20:30:12.865Z,52.26
2023-05-10T20:32:48.112Z,52.26
2023-05-10T20:35:22.563Z,53.03
2023-05-10T20:37:57.103Z,53.44
2023-05-10T20:40:31.561Z,53.74
2023-05-10T20:43:06.485Z,53.83
2023-05-10T20:45:42.274Z,53.99
2023-05-10T20:48:17.704Z,54.18
2023-05-10T20:50:52.362Z,53.95
2023-05-10T20:53:27.156Z,53.76
2023-05-10T20:56:01.527Z,54.12
2023-05-10T20:58:36.332Z,53.96
2023-05-10T21:01:12.535Z,53.73
2023-05-10T21:03:47.234Z,54.14
2023-05-10T21:06:21.510Z,54.02
2023-05-10T21:08:56.056Z,54.17
2023-05-10T21:11:30.688Z,54.27
2023-05-10T21:14:05.667Z,54.13
2023-05-10T21:16:41.507Z,54.24
2023-05-10T21:19:17.250Z,54.74
2023-05-10T21:21:51.553Z,54.93
2023-05-10T21:24:26.289Z,55.60
2023-05-10T21:27:00.548Z,54.55
2023-05-10T21:29:35.176Z,54.81
2023-05-10T21:32:11.089Z,55.17
2023-05-10T21:34:45.726Z,54.84
2023-05-10T21:37:20.007Z,55.21
2023-05-10T21:39:54.634Z,54.95
2023-05-10T21:42:29.002Z,55.01
2023-05-10T21:45:03.696Z,54.97
2023-05-10T21:47:39.480Z,55.39
2023-05-10T21:50:14.161Z,54.88
2023-05-10T21:52:48.449Z,54.60
2023-05-10T21:55:23.106Z,54.56
2023-05-10T21:57:57.879Z,55.02
2023-05-10T22:03:15.993Z,55.04
2023-05-10T22:05:51.135Z,55.04
2023-05-10T22:08:25.761Z,56.09
2023-05-10T22:11:00.344Z,56.50
2023-05-10T22:13:34.627Z,56.71
2023-05-10T22:16:09.589Z,56.89
2023-05-10T22:18:45.834Z,56.90
2023-05-10T22:21:21.184Z,57.51
2023-05-10T22:23:55.403Z,57.64
2023-05-10T22:26:29.982Z,57.52
2023-05-10T22:29:04.321Z,57.60
2023-05-10T22:31:39.036Z,57.42
2023-05-10T22:34:14.804Z,57.38
2023-05-10T22:36:50.529Z,57.81
2023-05-10T22:39:24.838Z,57.96
2023-05-10T22:41:59.473Z,57.98
2023-05-10T22:44:33.727Z,58.31
2023-05-10T22:47:09.122Z,58.65
2023-05-10T22:49:44.818Z,58.44
2023-05-10T22:52:19.365Z,58.71
2023-05-10T22:54:53.661Z,58.60
2023-05-10T22:57:28.457Z,58.38
2023-05-10T23:00:04.482Z,58.51
2023-05-10T23:02:39.309Z,58.80
2023-05-10T23:05:15.072Z,58.77
2023-05-10T23:07:53.324Z,59.58
2023-05-10T23:10:28.010Z,59.31
2023-05-10T23:13:02.815Z,59.28
2023-05-10T23:15:37.362Z,59.78
2023-05-10T23:18:12.906Z,59.48
2023-05-10T23:20:48.607Z,59.73
2023-05-10T23:23:23.294Z,59.89
2023-05-10T23:25:57.661Z,59.88
2023-05-10T23:28:32.299Z,59.80
2023-05-10T23:31:06.662Z,60.14
2023-05-10T23:33:41.307Z,60.39
2023-05-10T23:36:17.040Z,60.42
2023-05-10T23:38:51.672Z,59.93
2023-05-10T23:41:26.604Z,59.90
2023-05-10T23:44:02.324Z,59.79
2023-05-10T23:46:36.902Z,60.28
2023-05-10T23:49:11.493Z,60.37
2023-05-10T23:51:47.455Z,59.94
2023-05-10T23:54:22.262Z,60.43
2023-05-10T23:56:56.506Z,60.59
2023-05-10T23:59:31.157Z,60.86
